sensor_id;sensor_type;location;lat;lon;timestamp;temperature;humidity
35593;DHT22;64447;52.140;5.602;2022-11-23T00:00:27;9.10;95.10
35593;DHT22;64447;52.140;5.602;2022-11-23T00:02:53;9.10;95.30
35593;DHT22;64447;52.140;5.602;2022-11-23T00:05:19;9.30;95.00
35593;DHT22;64447;52.140;5.602;2022-11-23T00:07:45;9.30;95.30
35593;DHT22;64447;52.140;5.602;2022-11-23T00:10:10;9.10;95.10
35593;DHT22;64447;52.140;5.602;2022-11-23T00:12:36;9.40;95.20
35593;DHT22;64447;52.140;5.602;2022-11-23T00:15:03;9.20;95.20
35593;DHT22;64447;52.140;5.602;2022-11-23T00:17:28;9.20;95.00
35593;DHT22;64447;52.140;5.602;2022-11-23T00:19:54;9.20;95.00
35593;DHT22;64447;52.140;5.602;2022-11-23T00:25:44;9.20;95.10
35593;DHT22;64447;52.140;5.602;2022-11-23T00:28:10;9.30;95.10
35593;DHT22;64447;52.140;5.602;2022-11-23T00:30:36;9.30;94.70
35593;DHT22;64447;52.140;5.602;2022-11-23T00:33:01;9.40;94.70
35593;DHT22;64447;52.140;5.602;2022-11-23T00:35:27;9.70;94.90
35593;DHT22;64447;52.140;5.602;2022-11-23T00:37:52;9.30;95.10
35593;DHT22;64447;52.140;5.602;2022-11-23T00:40:18;9.30;94.70
35593;DHT22;64447;52.140;5.602;2022-11-23T00:42:44;9.20;95.20
35593;DHT22;64447;52.140;5.602;2022-11-23T00:45:09;9.20;95.00
35593;DHT22;64447;52.140;5.602;2022-11-23T00:47:35;9.20;95.10
35593;DHT22;64447;52.140;5.602;2022-11-23T00:50:01;9.10;95.20
35593;DHT22;64447;52.140;5.602;2022-11-23T00:55:53;9.10;95.30
35593;DHT22;64447;52.140;5.602;2022-11-23T00:58:19;9.20;95.20
35593;DHT22;64447;52.140;5.602;2022-11-23T01:00:44;9.20;95.10
35593;DHT22;64447;52.140;5.602;2022-11-23T01:03:10;9.20;95.20
35593;DHT22;64447;52.140;5.602;2022-11-23T01:05:37;9.20;95.10
35593;DHT22;64447;52.140;5.602;2022-11-23T01:08:03;9.30;95.20
35593;DHT22;64447;52.140;5.602;2022-11-23T01:10:30;9.30;94.90
35593;DHT22;64447;52.140;5.602;2022-11-23T01:12:55;9.30;94.90
35593;DHT22;64447;52.140;5.602;2022-11-23T01:15:21;9.30;94.90
35593;DHT22;64447;52.140;5.602;2022-11-23T01:17:46;9.20;95.10
35593;DHT22;64447;52.140;5.602;2022-11-23T01:20:12;9.30;95.30
35593;DHT22;64447;52.140;5.602;2022-11-23T01:26:04;9.10;95.60
35593;DHT22;64447;52.140;5.602;2022-11-23T01:28:30;9.10;95.60
35593;DHT22;64447;52.140;5.602;2022-11-23T01:31:03;9.10;95.40
35593;DHT22;64447;52.140;5.602;2022-11-23T01:33:29;9.20;95.20
35593;DHT22;64447;52.140;5.602;2022-11-23T01:35:54;9.30;95.20
35593;DHT22;64447;52.140;5.602;2022-11-23T01:38:20;9.20;95.20
35593;DHT22;64447;52.140;5.602;2022-11-23T01:40:46;9.10;95.30
35593;DHT22;64447;52.140;5.602;2022-11-23T01:43:16;9.10;95.30
35593;DHT22;64447;52.140;5.602;2022-11-23T01:46:00;9.10;95.50
35593;DHT22;64447;52.140;5.602;2022-11-23T01:48:30;9.10;95.20
35593;DHT22;64447;52.140;5.602;2022-11-23T01:50:58;9.10;95.20
35593;DHT22;64447;52.140;5.602;2022-11-23T01:53:26;9.00;95.20
35593;DHT22;64447;52.140;5.602;2022-11-23T01:55:55;9.10;95.30
35593;DHT22;64447;52.140;5.602;2022-11-23T01:58:22;9.10;95.20
35593;DHT22;64447;52.140;5.602;2022-11-23T02:00:49;9.10;95.20
35593;DHT22;64447;52.140;5.602;2022-11-23T02:03:16;9.20;95.20
35593;DHT22;64447;52.140;5.602;2022-11-23T02:12:27;9.20;94.70
35593;DHT22;64447;52.140;5.602;2022-11-23T02:14:53;9.10;95.00
35593;DHT22;64447;52.140;5.602;2022-11-23T02:17:18;9.10;94.80
35593;DHT22;64447;52.140;5.602;2022-11-23T02:20:06;9.20;95.20
35593;DHT22;64447;52.140;5.602;2022-11-23T02:28:37;9.20;94.50
35593;DHT22;64447;52.140;5.602;2022-11-23T02:31:04;9.20;94.50
35593;DHT22;64447;52.140;5.602;2022-11-23T02:33:30;9.20;94.70
35593;DHT22;64447;52.140;5.602;2022-11-23T02:35:58;9.20;94.50
35593;DHT22;64447;52.140;5.602;2022-11-23T02:38:27;9.30;94.30
35593;DHT22;64447;52.140;5.602;2022-11-23T02:40:54;9.60;94.50
35593;DHT22;64447;52.140;5.602;2022-11-23T02:43:20;9.30;94.30
35593;DHT22;64447;52.140;5.602;2022-11-23T02:45:51;9.20;94.30
35593;DHT22;64447;52.140;5.602;2022-11-23T02:48:18;9.10;94.30
35593;DHT22;64447;52.140;5.602;2022-11-23T02:50:44;9.10;94.30
35593;DHT22;64447;52.140;5.602;2022-11-23T02:53:11;9.30;94.40
35593;DHT22;64447;52.140;5.602;2022-11-23T02:55:37;9.00;94.30
35593;DHT22;64447;52.140;5.602;2022-11-23T02:58:03;9.10;94.40
35593;DHT22;64447;52.140;5.602;2022-11-23T03:00:29;9.10;94.30
35593;DHT22;64447;52.140;5.602;2022-11-23T03:02:55;9.10;94.10
35593;DHT22;64447;52.140;5.602;2022-11-23T03:05:22;9.10;94.00
35593;DHT22;64447;52.140;5.602;2022-11-23T03:07:47;9.10;94.10
35593;DHT22;64447;52.140;5.602;2022-11-23T03:10:13;9.00;94.10
35593;DHT22;64447;52.140;5.602;2022-11-23T03:12:39;9.20;94.20
35593;DHT22;64447;52.140;5.602;2022-11-23T03:15:04;9.00;94.10
35593;DHT22;64447;52.140;5.602;2022-11-23T03:17:30;9.00;94.00
35593;DHT22;64447;52.140;5.602;2022-11-23T03:19:56;9.10;94.00
35593;DHT22;64447;52.140;5.602;2022-11-23T03:22:23;9.10;93.90
35593;DHT22;64447;52.140;5.602;2022-11-23T03:24:49;9.10;94.00
35593;DHT22;64447;52.140;5.602;2022-11-23T03:27:14;9.20;93.60
35593;DHT22;64447;52.140;5.602;2022-11-23T03:29:40;9.30;93.30
35593;DHT22;64447;52.140;5.602;2022-11-23T03:32:05;9.30;93.10
35593;DHT22;64447;52.140;5.602;2022-11-23T03:34:31;9.30;93.00
35593;DHT22;64447;52.140;5.602;2022-11-23T03:36:56;9.20;93.10
35593;DHT22;64447;52.140;5.602;2022-11-23T03:39:22;9.10;93.10
35593;DHT22;64447;52.140;5.602;2022-11-23T03:41:47;9.40;93.10
35593;DHT22;64447;52.140;5.602;2022-11-23T03:44:13;9.10;93.00
35593;DHT22;64447;52.140;5.602;2022-11-23T03:46:39;9.20;93.20
35593;DHT22;64447;52.140;5.602;2022-11-23T03:49:04;9.20;92.90
35593;DHT22;64447;52.140;5.602;2022-11-23T03:51:30;9.30;92.90
35593;DHT22;64447;52.140;5.602;2022-11-23T03:53:55;9.40;92.70
35593;DHT22;64447;52.140;5.602;2022-11-23T03:56:21;9.30;92.50
35593;DHT22;64447;52.140;5.602;2022-11-23T03:58:46;9.10;92.80
35593;DHT22;64447;52.140;5.602;2022-11-23T04:01:12;9.20;92.80
35593;DHT22;64447;52.140;5.602;2022-11-23T04:03:38;9.20;92.80
35593;DHT22;64447;52.140;5.602;2022-11-23T04:06:03;9.20;92.90
35593;DHT22;64447;52.140;5.602;2022-11-23T04:11:50;9.20;93.00
35593;DHT22;64447;52.140;5.602;2022-11-23T04:14:16;9.20;92.70
35593;DHT22;64447;52.140;5.602;2022-11-23T04:16:42;9.30;92.60
35593;DHT22;64447;52.140;5.602;2022-11-23T04:19:07;9.40;92.30
35593;DHT22;64447;52.140;5.602;2022-11-23T04:21:33;9.50;91.90
35593;DHT22;64447;52.140;5.602;2022-11-23T04:27:20;9.60;91.70
35593;DHT22;64447;52.140;5.602;2022-11-23T04:29:46;9.50;91.80
35593;DHT22;64447;52.140;5.602;2022-11-23T04:32:11;9.50;92.20
35593;DHT22;64447;52.140;5.602;2022-11-23T04:34:37;9.40;92.10
35593;DHT22;64447;52.140;5.602;2022-11-23T04:37:03;9.70;92.20
35593;DHT22;64447;52.140;5.602;2022-11-23T04:39:28;9.60;91.90
35593;DHT22;64447;52.140;5.602;2022-11-23T04:41:54;9.50;92.00
35593;DHT22;64447;52.140;5.602;2022-11-23T04:44:19;9.50;92.00
35593;DHT22;64447;52.140;5.602;2022-11-23T04:46:46;9.80;91.80
35593;DHT22;64447;52.140;5.602;2022-11-23T04:49:11;9.50;91.50
35593;DHT22;64447;52.140;5.602;2022-11-23T04:51:37;9.40;91.80
35593;DHT22;64447;52.140;5.602;2022-11-23T04:57:25;9.10;92.60
35593;DHT22;64447;52.140;5.602;2022-11-23T04:59:50;9.20;92.50
35593;DHT22;64447;52.140;5.602;2022-11-23T05:02:16;9.30;92.20
35593;DHT22;64447;52.140;5.602;2022-11-23T05:04:41;9.30;92.00
35593;DHT22;64447;52.140;5.602;2022-11-23T05:07:07;9.30;91.90
35593;DHT22;64447;52.140;5.602;2022-11-23T05:09:32;9.40;91.90
35593;DHT22;64447;52.140;5.602;2022-11-23T05:11:58;9.30;91.60
35593;DHT22;64447;52.140;5.602;2022-11-23T05:14:24;9.30;91.90
35593;DHT22;64447;52.140;5.602;2022-11-23T05:16:49;9.40;91.80
35593;DHT22;64447;52.140;5.602;2022-11-23T05:19:15;9.60;91.80
35593;DHT22;64447;52.140;5.602;2022-11-23T05:21:40;9.40;91.60
35593;DHT22;64447;52.140;5.602;2022-11-23T05:27:28;9.20;91.70
35593;DHT22;64447;52.140;5.602;2022-11-23T05:29:54;9.40;91.70
35593;DHT22;64447;52.140;5.602;2022-11-23T05:32:19;9.50;91.50
35593;DHT22;64447;52.140;5.602;2022-11-23T05:34:45;9.50;91.30
35593;DHT22;64447;52.140;5.602;2022-11-23T05:37:10;9.50;91.50
35593;DHT22;64447;52.140;5.602;2022-11-23T05:39:36;9.50;91.20
35593;DHT22;64447;52.140;5.602;2022-11-23T05:42:01;9.50;91.40
35593;DHT22;64447;52.140;5.602;2022-11-23T05:44:27;9.60;91.40
35593;DHT22;64447;52.140;5.602;2022-11-23T05:46:52;9.60;91.40
35593;DHT22;64447;52.140;5.602;2022-11-23T05:49:18;9.50;91.60
35593;DHT22;64447;52.140;5.602;2022-11-23T05:51:44;9.40;91.80
35593;DHT22;64447;52.140;5.602;2022-11-23T05:57:31;9.20;92.30
35593;DHT22;64447;52.140;5.602;2022-11-23T05:59:57;9.10;92.30
35593;DHT22;64447;52.140;5.602;2022-11-23T06:02:22;9.10;92.50
35593;DHT22;64447;52.140;5.602;2022-11-23T06:04:48;9.00;92.40
35593;DHT22;64447;52.140;5.602;2022-11-23T06:07:13;9.10;92.70
35593;DHT22;64447;52.140;5.602;2022-11-23T06:13:03;9.00;92.80
35593;DHT22;64447;52.140;5.602;2022-11-23T06:15:29;9.00;92.80
35593;DHT22;64447;52.140;5.602;2022-11-23T06:17:58;8.90;93.00
35593;DHT22;64447;52.140;5.602;2022-11-23T06:20:25;8.90;92.90
35593;DHT22;64447;52.140;5.602;2022-11-23T06:22:52;9.20;92.80
35593;DHT22;64447;52.140;5.602;2022-11-23T06:25:18;9.20;92.40
35593;DHT22;64447;52.140;5.602;2022-11-23T06:28:00;9.50;92.20
35593;DHT22;64447;52.140;5.602;2022-11-23T06:30:27;9.20;92.20
35593;DHT22;64447;52.140;5.602;2022-11-23T06:32:52;9.30;92.00
35593;DHT22;64447;52.140;5.602;2022-11-23T06:35:18;9.90;91.90
35593;DHT22;64447;52.140;5.602;2022-11-23T06:37:44;9.90;91.90
35593;DHT22;64447;52.140;5.602;2022-11-23T06:40:10;9.50;91.40
35593;DHT22;64447;52.140;5.602;2022-11-23T06:42:36;9.50;91.20
35593;DHT22;64447;52.140;5.602;2022-11-23T06:45:03;9.30;91.40
35593;DHT22;64447;52.140;5.602;2022-11-23T06:47:28;9.40;91.50
35593;DHT22;64447;52.140;5.602;2022-11-23T06:49:54;9.40;91.60
35593;DHT22;64447;52.140;5.602;2022-11-23T06:52:20;9.50;91.40
35593;DHT22;64447;52.140;5.602;2022-11-23T06:58:08;9.30;91.60
35593;DHT22;64447;52.140;5.602;2022-11-23T07:00:34;9.30;91.60
35593;DHT22;64447;52.140;5.602;2022-11-23T07:03:00;9.50;91.40
35593;DHT22;64447;52.140;5.602;2022-11-23T07:05:26;9.60;91.20
35593;DHT22;64447;52.140;5.602;2022-11-23T07:07:52;9.50;91.00
35593;DHT22;64447;52.140;5.602;2022-11-23T07:10:18;9.50;91.30
35593;DHT22;64447;52.140;5.602;2022-11-23T07:12:44;9.30;91.20
35593;DHT22;64447;52.140;5.602;2022-11-23T07:15:10;9.30;91.20
35593;DHT22;64447;52.140;5.602;2022-11-23T07:17:40;9.40;91.30
35593;DHT22;64447;52.140;5.602;2022-11-23T07:20:09;9.40;91.10
35593;DHT22;64447;52.140;5.602;2022-11-23T07:22:36;9.30;91.20
35593;DHT22;64447;52.140;5.602;2022-11-23T07:28:24;9.10;91.20
35593;DHT22;64447;52.140;5.602;2022-11-23T07:30:50;9.10;91.50
35593;DHT22;64447;52.140;5.602;2022-11-23T07:33:16;9.10;91.30
35593;DHT22;64447;52.140;5.602;2022-11-23T07:35:42;9.10;91.50
35593;DHT22;64447;52.140;5.602;2022-11-23T07:38:07;9.20;91.50
35593;DHT22;64447;52.140;5.602;2022-11-23T07:40:35;9.10;91.30
35593;DHT22;64447;52.140;5.602;2022-11-23T07:43:02;9.30;91.50
35593;DHT22;64447;52.140;5.602;2022-11-23T07:45:29;9.10;91.60
35593;DHT22;64447;52.140;5.602;2022-11-23T07:47:59;9.20;91.40
35593;DHT22;64447;52.140;5.602;2022-11-23T07:50:25;9.30;91.30
35593;DHT22;64447;52.140;5.602;2022-11-23T07:52:51;9.20;91.10
35593;DHT22;64447;52.140;5.602;2022-11-23T07:58:39;9.30;91.00
35593;DHT22;64447;52.140;5.602;2022-11-23T08:01:04;9.50;91.20
35593;DHT22;64447;52.140;5.602;2022-11-23T08:03:30;9.00;91.30
35593;DHT22;64447;52.140;5.602;2022-11-23T08:05:56;9.10;91.60
35593;DHT22;64447;52.140;5.602;2022-11-23T08:08:21;9.70;91.70
35593;DHT22;64447;52.140;5.602;2022-11-23T08:10:47;9.10;91.60
35593;DHT22;64447;52.140;5.602;2022-11-23T08:13:12;10.00;92.00
35593;DHT22;64447;52.140;5.602;2022-11-23T08:15:38;9.50;91.80
35593;DHT22;64447;52.140;5.602;2022-11-23T08:18:03;9.20;91.60
35593;DHT22;64447;52.140;5.602;2022-11-23T08:20:30;9.10;91.50
35593;DHT22;64447;52.140;5.602;2022-11-23T08:22:56;9.10;91.60
35593;DHT22;64447;52.140;5.602;2022-11-23T08:28:43;9.10;91.30
35593;DHT22;64447;52.140;5.602;2022-11-23T08:31:10;9.70;92.00
35593;DHT22;64447;52.140;5.602;2022-11-23T08:33:36;9.00;92.10
35593;DHT22;64447;52.140;5.602;2022-11-23T08:36:03;9.10;92.20
35593;DHT22;64447;52.140;5.602;2022-11-23T08:38:30;9.00;92.20
35593;DHT22;64447;52.140;5.602;2022-11-23T08:44:17;9.00;92.70
35593;DHT22;64447;52.140;5.602;2022-11-23T08:46:43;9.10;92.50
35593;DHT22;64447;52.140;5.602;2022-11-23T08:49:08;9.10;92.30
35593;DHT22;64447;52.140;5.602;2022-11-23T08:51:34;9.20;92.50
35593;DHT22;64447;52.140;5.602;2022-11-23T08:54:00;9.30;92.10
35593;DHT22;64447;52.140;5.602;2022-11-23T08:56:25;9.30;91.90
35593;DHT22;64447;52.140;5.602;2022-11-23T08:58:51;9.30;91.60
35593;DHT22;64447;52.140;5.602;2022-11-23T09:01:17;9.50;91.60
35593;DHT22;64447;52.140;5.602;2022-11-23T09:03:43;9.30;91.50
35593;DHT22;64447;52.140;5.602;2022-11-23T09:06:09;9.20;91.10
35593;DHT22;64447;52.140;5.602;2022-11-23T09:08:35;9.50;91.10
35593;DHT22;64447;52.140;5.602;2022-11-23T09:14:23;9.30;91.00
35593;DHT22;64447;52.140;5.602;2022-11-23T09:16:49;9.30;90.80
35593;DHT22;64447;52.140;5.602;2022-11-23T09:19:15;9.20;90.60
35593;DHT22;64447;52.140;5.602;2022-11-23T09:21:40;9.30;90.80
35593;DHT22;64447;52.140;5.602;2022-11-23T09:24:09;9.30;90.80
35593;DHT22;64447;52.140;5.602;2022-11-23T09:26:35;9.40;90.70
35593;DHT22;64447;52.140;5.602;2022-11-23T09:29:02;9.80;90.50
35593;DHT22;64447;52.140;5.602;2022-11-23T09:31:28;9.40;90.10
35593;DHT22;64447;52.140;5.602;2022-11-23T09:33:53;9.40;90.00
35593;DHT22;64447;52.140;5.602;2022-11-23T09:36:20;9.40;90.00
35593;DHT22;64447;52.140;5.602;2022-11-23T09:38:48;9.50;89.90
35593;DHT22;64447;52.140;5.602;2022-11-23T09:50:23;9.50;89.00
35593;DHT22;64447;52.140;5.602;2022-11-23T09:52:50;9.50;88.60
35593;DHT22;64447;52.140;5.602;2022-11-23T09:55:27;9.50;87.30
35593;DHT22;64447;52.140;5.602;2022-11-23T09:57:55;9.60;87.20
35593;DHT22;64447;52.140;5.602;2022-11-23T10:00:24;9.80;87.70
35593;DHT22;64447;52.140;5.602;2022-11-23T10:02:50;9.60;86.00
35593;DHT22;64447;52.140;5.602;2022-11-23T10:05:24;9.60;85.80
35593;DHT22;64447;52.140;5.602;2022-11-23T10:14:03;9.70;86.80
35593;DHT22;64447;52.140;5.602;2022-11-23T10:16:36;9.60;86.50
35593;DHT22;64447;52.140;5.602;2022-11-23T10:21:53;10.20;86.80
35593;DHT22;64447;52.140;5.602;2022-11-23T10:27:46;9.60;86.90
35593;DHT22;64447;52.140;5.602;2022-11-23T10:30:13;9.50;86.70
35593;DHT22;64447;52.140;5.602;2022-11-23T10:35:34;9.50;86.90
35593;DHT22;64447;52.140;5.602;2022-11-23T10:38:11;9.60;86.80
35593;DHT22;64447;52.140;5.602;2022-11-23T10:46:42;9.50;85.80
35593;DHT22;64447;52.140;5.602;2022-11-23T10:51:40;9.60;85.30
35593;DHT22;64447;52.140;5.602;2022-11-23T11:01:23;9.80;85.00
35593;DHT22;64447;52.140;5.602;2022-11-23T11:03:52;9.70;84.90
35593;DHT22;64447;52.140;5.602;2022-11-23T11:06:32;9.80;85.30
35593;DHT22;64447;52.140;5.602;2022-11-23T11:09:04;9.80;84.90
35593;DHT22;64447;52.140;5.602;2022-11-23T11:11:45;9.80;84.20
35593;DHT22;64447;52.140;5.602;2022-11-23T11:14:20;9.80;84.10
35593;DHT22;64447;52.140;5.602;2022-11-23T11:16:52;9.80;84.40
35593;DHT22;64447;52.140;5.602;2022-11-23T11:21:52;9.80;83.50
35593;DHT22;64447;52.140;5.602;2022-11-23T11:24:20;10.10;84.40
35593;DHT22;64447;52.140;5.602;2022-11-23T11:27:20;9.70;83.40
35593;DHT22;64447;52.140;5.602;2022-11-23T11:29:50;9.80;83.40
35593;DHT22;64447;52.140;5.602;2022-11-23T11:37:45;9.80;83.70
35593;DHT22;64447;52.140;5.602;2022-11-23T11:43:57;9.90;83.00
35593;DHT22;64447;52.140;5.602;2022-11-23T11:46:36;9.90;82.70
35593;DHT22;64447;52.140;5.602;2022-11-23T11:49:11;10.20;83.30
35593;DHT22;64447;52.140;5.602;2022-11-23T11:51:42;10.10;83.10
35593;DHT22;64447;52.140;5.602;2022-11-23T11:54:17;10.20;83.20
35593;DHT22;64447;52.140;5.602;2022-11-23T12:00:13;10.10;82.80
35593;DHT22;64447;52.140;5.602;2022-11-23T12:02:56;10.10;82.90
35593;DHT22;64447;52.140;5.602;2022-11-23T12:05:28;10.20;83.60
35593;DHT22;64447;52.140;5.602;2022-11-23T12:13:31;10.30;82.20
35593;DHT22;64447;52.140;5.602;2022-11-23T12:19:06;10.20;81.60
35593;DHT22;64447;52.140;5.602;2022-11-23T12:22:04;10.20;81.70
35593;DHT22;64447;52.140;5.602;2022-11-23T12:27:24;10.30;81.20
35593;DHT22;64447;52.140;5.602;2022-11-23T12:49:50;10.40;80.50
35593;DHT22;64447;52.140;5.602;2022-11-23T13:01:34;10.50;80.50
35593;DHT22;64447;52.140;5.602;2022-11-23T13:04:59;10.80;80.00
35593;DHT22;64447;52.140;5.602;2022-11-23T13:07:54;10.50;79.70
35593;DHT22;64447;52.140;5.602;2022-11-23T13:14:09;10.50;79.50
35593;DHT22;64447;52.140;5.602;2022-11-23T13:16:48;10.50;79.70
35593;DHT22;64447;52.140;5.602;2022-11-23T13:22:15;10.40;79.10
35593;DHT22;64447;52.140;5.602;2022-11-23T13:31:20;10.50;79.00
35593;DHT22;64447;52.140;5.602;2022-11-23T13:33:49;10.50;79.30
35593;DHT22;64447;52.140;5.602;2022-11-23T13:38:57;10.50;80.20
35593;DHT22;64447;52.140;5.602;2022-11-23T13:44:18;10.50;80.00
35593;DHT22;64447;52.140;5.602;2022-11-23T13:49:51;10.40;80.10
35593;DHT22;64447;52.140;5.602;2022-11-23T13:57:27;10.40;79.50
35593;DHT22;64447;52.140;5.602;2022-11-23T13:59:52;10.40;79.70
35593;DHT22;64447;52.140;5.602;2022-11-23T14:02:28;10.50;79.80
35593;DHT22;64447;52.140;5.602;2022-11-23T14:08:00;10.40;80.60
35593;DHT22;64447;52.140;5.602;2022-11-23T14:10:30;10.30;80.60
35593;DHT22;64447;52.140;5.602;2022-11-23T14:13:47;10.30;81.30
35593;DHT22;64447;52.140;5.602;2022-11-23T14:16:03;10.30;82.70
35593;DHT22;64447;52.140;5.602;2022-11-23T14:18:48;10.30;85.00
35593;DHT22;64447;52.140;5.602;2022-11-23T14:24:24;10.10;87.70
35593;DHT22;64447;52.140;5.602;2022-11-23T14:44:49;9.50;91.70
35593;DHT22;64447;52.140;5.602;2022-11-23T14:47:25;9.50;91.90
35593;DHT22;64447;52.140;5.602;2022-11-23T14:49:52;9.40;91.90
35593;DHT22;64447;52.140;5.602;2022-11-23T14:52:23;9.40;92.20
35593;DHT22;64447;52.140;5.602;2022-11-23T14:54:50;9.40;92.20
35593;DHT22;64447;52.140;5.602;2022-11-23T15:00:41;9.60;92.00
35593;DHT22;64447;52.140;5.602;2022-11-23T15:03:18;9.40;92.20
35593;DHT22;64447;52.140;5.602;2022-11-23T15:05:52;9.40;92.40
35593;DHT22;64447;52.140;5.602;2022-11-23T15:08:27;9.40;92.60
35593;DHT22;64447;52.140;5.602;2022-11-23T15:17:21;9.40;92.70
35593;DHT22;64447;52.140;5.602;2022-11-23T15:19:59;9.30;92.90
35593;DHT22;64447;52.140;5.602;2022-11-23T15:22:26;9.20;93.20
35593;DHT22;64447;52.140;5.602;2022-11-23T15:24:53;9.10;93.30
35593;DHT22;64447;52.140;5.602;2022-11-23T15:27:27;9.10;93.60
35593;DHT22;64447;52.140;5.602;2022-11-23T15:29:55;9.10;93.60
35593;DHT22;64447;52.140;5.602;2022-11-23T15:32:24;9.10;93.70
35593;DHT22;64447;52.140;5.602;2022-11-23T15:34:52;9.10;93.60
35593;DHT22;64447;52.140;5.602;2022-11-23T15:37:18;9.10;93.80
35593;DHT22;64447;52.140;5.602;2022-11-23T15:39:45;9.10;94.10
35593;DHT22;64447;52.140;5.602;2022-11-23T15:42:16;9.00;93.80
35593;DHT22;64447;52.140;5.602;2022-11-23T15:44:43;9.10;93.70
35593;DHT22;64447;52.140;5.602;2022-11-23T15:47:18;9.00;93.80
35593;DHT22;64447;52.140;5.602;2022-11-23T15:49:47;9.10;93.80
35593;DHT22;64447;52.140;5.602;2022-11-23T15:52:15;9.00;93.80
35593;DHT22;64447;52.140;5.602;2022-11-23T15:54:42;9.00;93.90
35593;DHT22;64447;52.140;5.602;2022-11-23T15:57:28;9.40;94.20
35593;DHT22;64447;52.140;5.602;2022-11-23T15:59:59;9.10;94.20
35593;DHT22;64447;52.140;5.602;2022-11-23T16:02:26;9.10;93.90
35593;DHT22;64447;52.140;5.602;2022-11-23T16:07:50;9.10;93.80
35593;DHT22;64447;52.140;5.602;2022-11-23T16:10:17;9.10;93.80
35593;DHT22;64447;52.140;5.602;2022-11-23T16:12:50;9.10;93.70
35593;DHT22;64447;52.140;5.602;2022-11-23T16:18:02;9.20;93.70
35593;DHT22;64447;52.140;5.602;2022-11-23T16:20:28;9.20;93.30
35593;DHT22;64447;52.140;5.602;2022-11-23T16:22:54;9.00;93.60
35593;DHT22;64447;52.140;5.602;2022-11-23T16:25:33;9.00;93.90
35593;DHT22;64447;52.140;5.602;2022-11-23T16:28:03;9.00;94.10
35593;DHT22;64447;52.140;5.602;2022-11-23T16:30:39;9.10;94.00
35593;DHT22;64447;52.140;5.602;2022-11-23T16:33:05;9.00;94.10
35593;DHT22;64447;52.140;5.602;2022-11-23T16:35:31;9.00;94.50
35593;DHT22;64447;52.140;5.602;2022-11-23T16:37:56;8.90;94.30
35593;DHT22;64447;52.140;5.602;2022-11-23T16:40:21;9.00;94.30
35593;DHT22;64447;52.140;5.602;2022-11-23T16:42:50;9.00;94.30
35593;DHT22;64447;52.140;5.602;2022-11-23T16:45:16;9.10;94.30
35593;DHT22;64447;52.140;5.602;2022-11-23T16:47:50;9.10;94.10
35593;DHT22;64447;52.140;5.602;2022-11-23T16:50:15;9.20;94.10
35593;DHT22;64447;52.140;5.602;2022-11-23T16:52:41;9.20;93.80
35593;DHT22;64447;52.140;5.602;2022-11-23T16:55:08;9.20;93.90
35593;DHT22;64447;52.140;5.602;2022-11-23T16:57:34;9.20;94.00
35593;DHT22;64447;52.140;5.602;2022-11-23T17:00:00;9.20;94.00
35593;DHT22;64447;52.140;5.602;2022-11-23T17:02:26;9.20;93.90
35593;DHT22;64447;52.140;5.602;2022-11-23T17:04:52;9.10;94.10
35593;DHT22;64447;52.140;5.602;2022-11-23T17:07:17;9.00;94.20
35593;DHT22;64447;52.140;5.602;2022-11-23T17:09:43;9.00;94.40
35593;DHT22;64447;52.140;5.602;2022-11-23T17:12:12;9.00;94.50
35593;DHT22;64447;52.140;5.602;2022-11-23T17:14:38;9.00;94.70
35593;DHT22;64447;52.140;5.602;2022-11-23T17:17:04;9.60;94.80
35593;DHT22;64447;52.140;5.602;2022-11-23T17:19:33;9.10;94.60
35593;DHT22;64447;52.140;5.602;2022-11-23T17:21:58;8.90;94.70
35593;DHT22;64447;52.140;5.602;2022-11-23T17:24:24;9.80;95.10
35593;DHT22;64447;52.140;5.602;2022-11-23T17:26:50;9.20;94.80
35593;DHT22;64447;52.140;5.602;2022-11-23T17:32:20;9.10;94.60
35593;DHT22;64447;52.140;5.602;2022-11-23T17:34:45;9.10;94.40
35593;DHT22;64447;52.140;5.602;2022-11-23T17:37:15;9.10;94.70
35593;DHT22;64447;52.140;5.602;2022-11-23T17:39:42;9.10;94.60
35593;DHT22;64447;52.140;5.602;2022-11-23T17:42:09;9.10;94.40
35593;DHT22;64447;52.140;5.602;2022-11-23T17:44:35;9.20;94.20
35593;DHT22;64447;52.140;5.602;2022-11-23T17:47:00;9.10;94.30
35593;DHT22;64447;52.140;5.602;2022-11-23T17:49:26;9.10;94.50
35593;DHT22;64447;52.140;5.602;2022-11-23T17:51:55;9.20;94.40
35593;DHT22;64447;52.140;5.602;2022-11-23T17:54:22;9.20;94.20
35593;DHT22;64447;52.140;5.602;2022-11-23T17:56:48;9.60;94.30
35593;DHT22;64447;52.140;5.602;2022-11-23T17:59:14;9.20;94.10
35593;DHT22;64447;52.140;5.602;2022-11-23T18:01:39;9.40;94.20
35593;DHT22;64447;52.140;5.602;2022-11-23T18:04:05;9.30;93.90
35593;DHT22;64447;52.140;5.602;2022-11-23T18:06:31;9.40;93.80
35593;DHT22;64447;52.140;5.602;2022-11-23T18:08:56;9.30;93.90
35593;DHT22;64447;52.140;5.602;2022-11-23T18:11:22;9.30;93.90
35593;DHT22;64447;52.140;5.602;2022-11-23T18:13:47;9.30;94.10
35593;DHT22;64447;52.140;5.602;2022-11-23T18:16:14;9.20;94.20
35593;DHT22;64447;52.140;5.602;2022-11-23T18:18:40;9.30;94.30
35593;DHT22;64447;52.140;5.602;2022-11-23T18:21:06;9.10;94.30
35593;DHT22;64447;52.140;5.602;2022-11-23T18:23:31;9.20;94.40
35593;DHT22;64447;52.140;5.602;2022-11-23T18:26:01;9.20;94.50
35593;DHT22;64447;52.140;5.602;2022-11-23T18:28:27;9.20;94.40
35593;DHT22;64447;52.140;5.602;2022-11-23T18:30:53;9.30;94.30
35593;DHT22;64447;52.140;5.602;2022-11-23T18:33:19;9.20;94.20
35593;DHT22;64447;52.140;5.602;2022-11-23T18:35:44;9.20;94.20
35593;DHT22;64447;52.140;5.602;2022-11-23T18:38:10;9.30;94.30
35593;DHT22;64447;52.140;5.602;2022-11-23T18:40:35;9.20;94.20
35593;DHT22;64447;52.140;5.602;2022-11-23T18:43:01;9.30;94.20
35593;DHT22;64447;52.140;5.602;2022-11-23T18:45:26;9.20;94.30
35593;DHT22;64447;52.140;5.602;2022-11-23T18:47:52;9.20;94.30
35593;DHT22;64447;52.140;5.602;2022-11-23T18:50:18;9.20;94.30
35593;DHT22;64447;52.140;5.602;2022-11-23T18:52:43;9.20;94.20
35593;DHT22;64447;52.140;5.602;2022-11-23T18:55:09;9.20;94.20
35593;DHT22;64447;52.140;5.602;2022-11-23T18:57:34;9.20;94.10
35593;DHT22;64447;52.140;5.602;2022-11-23T19:03:03;9.20;94.00
35593;DHT22;64447;52.140;5.602;2022-11-23T19:05:30;9.20;94.10
35593;DHT22;64447;52.140;5.602;2022-11-23T19:08:04;9.20;93.80
35593;DHT22;64447;52.140;5.602;2022-11-23T19:10:31;9.10;93.80
35593;DHT22;64447;52.140;5.602;2022-11-23T19:12:57;9.50;94.00
35593;DHT22;64447;52.140;5.602;2022-11-23T19:15:22;9.20;93.80
35593;DHT22;64447;52.140;5.602;2022-11-23T19:17:48;9.20;93.70
35593;DHT22;64447;52.140;5.602;2022-11-23T19:20:14;9.10;93.60
35593;DHT22;64447;52.140;5.602;2022-11-23T19:22:39;9.10;93.50
35593;DHT22;64447;52.140;5.602;2022-11-23T19:25:05;9.40;93.70
35593;DHT22;64447;52.140;5.602;2022-11-23T19:27:33;9.00;93.80
35593;DHT22;64447;52.140;5.602;2022-11-23T19:33:05;8.90;93.80
35593;DHT22;64447;52.140;5.602;2022-11-23T19:35:31;8.90;93.70
35593;DHT22;64447;52.140;5.602;2022-11-23T19:37:56;8.80;93.80
35593;DHT22;64447;52.140;5.602;2022-11-23T19:40:22;8.70;94.10
35593;DHT22;64447;52.140;5.602;2022-11-23T19:42:47;8.80;94.00